Time;durP1;ratioP1;P1;durP2;ratioP2;P2;SDS_P1;SDS_P2;PMS_P1;PMS_P2;Temp;Humidity;BMP_temperature;BMP_pressure;BME280_temperature;BME280_humidity;BME280_pressure;Samples;Min_cycle;Max_cycle;Signal;HPM_P1;HPM_P2
2023/01/19 00:01:11;;;;;;;5.93;4.63;;;0.10;99.90;;;;;;7417641;19;20333;-86
2023/01/19 00:03:37;;;;;;;5.87;4.67;;;0.10;99.90;;;;;;7416509;19;20769;-85
2023/01/19 00:06:06;;;;;;;5.00;4.40;;;0.10;99.90;;;;;;7417027;19;20312;-92
2023/01/19 00:08:32;;;;;;;5.00;4.50;;;0.20;99.90;;;;;;7415296;19;20344;-87
2023/01/19 00:10:57;;;;;;;5.25;4.55;;;0.20;99.90;;;;;;7417023;19;20300;-89
2023/01/19 00:13:23;;;;;;;4.80;4.30;;;0.10;99.90;;;;;;7408591;19;20822;-87
2023/01/19 00:15:48;;;;;;;5.47;4.90;;;0.10;99.90;;;;;;7408486;19;20292;-88
2023/01/19 00:18:14;;;;;;;6.03;5.20;;;0.00;99.90;;;;;;7414935;19;20332;-85
2023/01/19 00:20:40;;;;;;;6.97;5.50;;;0.00;99.90;;;;;;7419361;19;20344;-87
2023/01/19 00:23:06;;;;;;;9.03;6.07;;;-0.10;99.90;;;;;;7416842;19;20341;-86
2023/01/19 00:25:32;;;;;;;7.05;5.13;;;-0.20;99.90;;;;;;7413444;19;20313;-85
2023/01/19 00:27:58;;;;;;;6.75;5.05;;;-0.30;99.90;;;;;;7420041;19;20296;-88
2023/01/19 00:30:24;;;;;;;6.32;5.20;;;-0.40;99.90;;;;;;7420884;19;20376;-88
2023/01/19 00:32:50;;;;;;;9.00;4.72;;;-0.40;99.90;;;;;;7421056;19;20312;-87
2023/01/19 00:35:15;;;;;;;7.33;4.87;;;-0.50;99.90;;;;;;7420720;19;20376;-88
2023/01/19 00:37:44;;;;;;;6.72;5.38;;;-0.50;99.90;;;;;;7420020;19;20396;-86
2023/01/19 00:40:12;;;;;;;9.82;6.25;;;-0.60;99.90;;;;;;7420567;19;20328;-86
2023/01/19 00:42:43;;;;;;;5.38;4.65;;;-0.60;99.90;;;;;;7420841;19;20351;-86
2023/01/19 00:45:18;;;;;;;5.85;5.18;;;-0.60;99.90;;;;;;7419526;19;20340;-85
2023/01/19 00:47:44;;;;;;;7.60;6.00;;;-0.60;99.90;;;;;;7420239;19;20400;-85
2023/01/19 00:50:11;;;;;;;6.77;4.67;;;-0.80;99.90;;;;;;7420720;19;20348;-86
2023/01/19 00:52:37;;;;;;;4.47;3.78;;;-0.80;99.90;;;;;;7419812;19;20367;-88
2023/01/19 00:55:04;;;;;;;4.23;3.73;;;-0.80;99.90;;;;;;7419671;19;20745;-86
2023/01/19 00:57:30;;;;;;;5.35;4.85;;;-0.90;99.90;;;;;;7416705;19;20340;-87
2023/01/19 00:59:55;;;;;;;4.50;3.33;;;-1.00;99.90;;;;;;7419258;19;20332;-86
2023/01/19 01:02:21;;;;;;;2.90;2.37;;;-1.00;99.90;;;;;;7418104;19;20332;-88
2023/01/19 01:04:46;;;;;;;3.92;3.28;;;-1.10;99.90;;;;;;7416483;19;20361;-85
2023/01/19 01:07:12;;;;;;;3.73;3.33;;;-1.10;99.90;;;;;;7417980;19;20328;-88
2023/01/19 01:09:38;;;;;;;3.75;3.30;;;-1.30;99.90;;;;;;7417915;19;20357;-86
2023/01/19 01:12:04;;;;;;;4.47;3.43;;;-1.30;99.90;;;;;;7419096;19;20352;-86
2023/01/19 01:14:29;;;;;;;4.33;3.80;;;-1.30;99.90;;;;;;7415834;19;20557;-87
2023/01/19 01:16:55;;;;;;;4.63;3.80;;;-1.30;99.90;;;;;;7419668;19;20317;-85
2023/01/19 01:19:21;;;;;;;4.20;2.90;;;-1.30;99.90;;;;;;7419385;19;20348;-87
2023/01/19 01:21:46;;;;;;;3.38;2.88;;;-1.30;99.90;;;;;;7416794;19;20435;-90
2023/01/19 01:24:12;;;;;;;4.13;3.17;;;-1.30;99.90;;;;;;7418305;19;20301;-83
2023/01/19 01:26:38;;;;;;;5.90;2.90;;;-1.30;99.90;;;;;;7416506;19;20783;-86
2023/01/19 01:29:07;;;;;;;4.78;3.70;;;-1.30;99.90;;;;;;7416917;19;20347;-85
2023/01/19 01:31:33;;;;;;;3.80;3.50;;;-1.40;99.90;;;;;;7412975;19;20340;-86
2023/01/19 01:33:58;;;;;;;4.30;2.65;;;-1.40;99.90;;;;;;7413583;19;20305;-86
2023/01/19 01:36:27;;;;;;;3.88;3.33;;;-1.40;99.90;;;;;;7414920;19;20344;-90
2023/01/19 01:38:53;;;;;;;2.88;2.67;;;-1.50;99.90;;;;;;7413353;19;20301;-84
2023/01/19 01:41:19;;;;;;;3.70;3.40;;;-1.50;99.90;;;;;;7392071;19;20364;-89
2023/01/19 01:43:49;;;;;;;3.80;2.95;;;-1.50;99.90;;;;;;7412406;19;20361;-90
2023/01/19 01:46:15;;;;;;;3.78;3.15;;;-1.40;99.90;;;;;;7410449;19;20313;-85
2023/01/19 01:48:59;;;;;;;3.50;3.00;;;-1.50;99.90;;;;;;7410486;19;20329;-86
2023/01/19 01:51:43;;;;;;;3.50;3.20;;;-1.50;99.90;;;;;;7411002;19;20332;-85
2023/01/19 01:54:20;;;;;;;4.27;3.47;;;-1.50;99.90;;;;;;7306669;19;2004356;-87
2023/01/19 01:56:48;;;;;;;4.15;3.75;;;-1.60;99.90;;;;;;7406065;19;20309;-89
2023/01/19 01:59:24;;;;;;;5.38;4.40;;;-1.70;99.90;;;;;;7408191;19;20674;-85
2023/01/19 02:04:52;;;;;;;3.47;3.17;;;-1.70;99.90;;;;;;7302023;19;2004335;-93
2023/01/19 02:13:16;;;;;;;4.05;3.65;;;-1.80;99.90;;;;;;7402192;19;20311;-92
2023/01/19 02:15:43;;;;;;;5.90;4.20;;;-2.00;99.90;;;;;;7300099;19;2004241;-88
2023/01/19 02:18:09;;;;;;;4.75;4.18;;;-2.00;99.90;;;;;;7403270;19;20317;-90
2023/01/19 02:20:35;;;;;;;5.03;4.40;;;-2.10;99.90;;;;;;7402583;19;20340;-95
2023/01/19 02:23:01;;;;;;;6.17;4.50;;;-2.00;99.90;;;;;;7401082;19;20316;-91
2023/01/19 02:25:27;;;;;;;5.18;4.30;;;-2.10;99.90;;;;;;7405991;19;20348;-88
2023/01/19 02:27:53;;;;;;;5.17;4.67;;;-2.20;99.90;;;;;;7402892;19;20300;-89
2023/01/19 02:30:18;;;;;;;6.57;5.00;;;-2.20;99.90;;;;;;7401135;19;20327;-93
2023/01/19 02:32:44;;;;;;;5.53;4.40;;;-2.20;99.90;;;;;;7404821;19;20345;-92
2023/01/19 02:35:10;;;;;;;6.57;4.97;;;-2.20;99.90;;;;;;7403043;19;20671;-92
2023/01/19 02:37:36;;;;;;;5.93;4.73;;;-2.20;99.90;;;;;;7404778;19;20706;-87
2023/01/19 02:40:02;;;;;;;8.00;5.17;;;-2.20;99.90;;;;;;7403008;19;20968;-91
2023/01/19 02:42:36;;;;;;;6.50;5.20;;;-2.30;99.90;;;;;;7402516;19;20329;-91
2023/01/19 02:45:05;;;;;;;5.57;4.70;;;-2.40;99.90;;;;;;7298922;19;2004253;-90
2023/01/19 02:47:45;;;;;;;7.00;4.77;;;-2.40;99.90;;;;;;7399774;19;20329;-94
2023/01/19 02:50:35;;;;;;;6.53;5.07;;;-2.40;99.90;;;;;;7401482;19;20316;-90
2023/01/19 02:53:24;;;;;;;5.70;4.47;;;-2.40;99.90;;;;;;7298244;19;2004404;-94
2023/01/19 02:55:55;;;;;;;5.25;4.32;;;-2.40;99.90;;;;;;7400367;19;20293;-86
2023/01/19 02:58:39;;;;;;;5.38;4.10;;;-2.40;99.90;;;;;;7400977;19;20304;-90
2023/01/19 03:01:37;;;;;;;6.35;4.55;;;-2.40;99.90;;;;;;7299194;19;2004284;-88
2023/01/19 03:04:18;;;;;;;6.80;4.70;;;-2.50;99.90;;;;;;7301863;19;2004211;-85
2023/01/19 03:06:54;;;;;;;5.57;4.75;;;-2.70;99.90;;;;;;7403982;19;20488;-88
2023/01/19 03:09:28;;;;;;;5.13;4.20;;;-2.80;99.90;;;;;;7404471;19;21027;-89
2023/01/19 03:12:02;;;;;;;5.90;4.07;;;-2.70;99.90;;;;;;7404712;19;20317;-89
2023/01/19 03:14:27;;;;;;;5.78;4.70;;;-2.80;99.90;;;;;;7407104;19;20367;-88
2023/01/19 03:16:55;;;;;;;6.10;4.70;;;-2.80;99.90;;;;;;7403455;19;20324;-89
2023/01/19 03:19:23;;;;;;;5.57;4.85;;;-2.80;99.90;;;;;;7404067;19;20348;-89
2023/01/19 03:21:58;;;;;;;6.35;5.05;;;-2.90;99.90;;;;;;7404153;19;20347;-89
2023/01/19 03:24:23;;;;;;;6.53;4.63;;;-2.80;99.90;;;;;;7407552;19;20419;-90
2023/01/19 03:26:57;;;;;;;6.28;4.85;;;-2.80;99.90;;;;;;7404806;19;20324;-86
2023/01/19 03:29:23;;;;;;;7.90;5.63;;;-2.70;99.90;;;;;;7407093;19;20567;-88
2023/01/19 03:31:49;;;;;;;6.65;5.45;;;-2.80;99.90;;;;;;7407235;19;20328;-86
2023/01/19 03:34:15;;;;;;;8.07;5.80;;;-2.70;99.90;;;;;;7410053;19;20353;-86
2023/01/19 03:36:48;;;;;;;8.00;5.70;;;-2.70;99.90;;;;;;7405968;19;20365;-90
2023/01/19 03:39:16;;;;;;;11.75;7.68;;;-2.80;99.90;;;;;;7408693;19;20320;-91
2023/01/19 03:41:41;;;;;;;6.75;5.80;;;-2.80;99.90;;;;;;7400972;19;20352;-88
2023/01/19 03:44:07;;;;;;;9.32;6.93;;;-2.80;99.90;;;;;;7404085;19;20304;-91
2023/01/19 03:46:32;;;;;;;8.67;6.77;;;-2.90;99.90;;;;;;7403564;19;20328;-90
2023/01/19 03:48:58;;;;;;;8.52;6.47;;;-2.90;99.90;;;;;;7406045;19;20324;-91
2023/01/19 03:51:24;;;;;;;8.23;6.93;;;-2.90;99.90;;;;;;7403368;19;20349;-87
2023/01/19 03:53:49;;;;;;;9.53;7.80;;;-2.90;99.90;;;;;;7406699;19;20357;-86
2023/01/19 03:56:23;;;;;;;10.25;7.50;;;-3.00;99.90;;;;;;7404605;19;20354;-87
2023/01/19 03:58:48;;;;;;;8.18;7.10;;;-3.00;99.90;;;;;;7402839;19;20347;-89
2023/01/19 04:01:14;;;;;;;7.67;6.67;;;-2.90;99.90;;;;;;7403285;19;20328;-92
2023/01/19 04:03:40;;;;;;;10.97;8.43;;;-3.00;99.90;;;;;;7402721;19;20340;-89
2023/01/19 04:06:08;;;;;;;9.10;7.32;;;-2.90;99.90;;;;;;7404916;19;20322;-92
2023/01/19 04:08:33;;;;;;;8.43;7.03;;;-3.00;99.90;;;;;;7403396;19;20351;-92
2023/01/19 04:10:59;;;;;;;9.45;7.47;;;-2.90;99.90;;;;;;7401845;19;20349;-94
2023/01/19 04:13:27;;;;;;;6.83;5.47;;;-2.80;99.90;;;;;;7405648;19;20365;-90
2023/01/19 04:15:53;;;;;;;8.95;6.30;;;-2.90;99.90;;;;;;7405628;19;20364;-87
2023/01/19 04:18:18;;;;;;;11.88;6.78;;;-2.90;99.90;;;;;;7407673;19;20336;-89
2023/01/19 04:20:44;;;;;;;9.70;7.10;;;-2.90;99.90;;;;;;7405734;19;20409;-90
2023/01/19 04:23:10;;;;;;;8.33;6.23;;;-3.00;99.90;;;;;;7407532;19;20341;-87
2023/01/19 04:25:35;;;;;;;11.57;6.35;;;-3.00;99.90;;;;;;7403864;19;20352;-90
2023/01/19 04:28:01;;;;;;;12.27;7.57;;;-3.00;99.90;;;;;;7410041;19;20320;-88
2023/01/19 04:30:27;;;;;;;11.07;7.57;;;-3.00;99.90;;;;;;7414465;19;20309;-89
2023/01/19 04:32:54;;;;;;;11.75;7.32;;;-3.00;99.90;;;;;;7413915;19;20334;-88
2023/01/19 04:35:21;;;;;;;11.55;8.13;;;-3.00;99.90;;;;;;7414236;19;20332;-88
2023/01/19 04:37:47;;;;;;;10.37;7.57;;;-3.10;99.90;;;;;;7413831;19;20356;-87
2023/01/19 04:40:12;;;;;;;11.23;7.32;;;-3.10;99.90;;;;;;7414094;19;20332;-87
2023/01/19 04:42:41;;;;;;;11.27;7.43;;;-3.10;99.90;;;;;;7410242;19;20345;-87
2023/01/19 04:45:07;;;;;;;10.23;7.70;;;-3.10;99.90;;;;;;7411197;19;20329;-91
2023/01/19 04:47:33;;;;;;;12.05;6.97;;;-3.10;99.90;;;;;;7409802;19;20384;-84
2023/01/19 04:49:59;;;;;;;10.73;7.47;;;-3.10;99.90;;;;;;7411532;19;20320;-90
2023/01/19 04:52:33;;;;;;;12.35;7.97;;;-3.10;99.90;;;;;;7412615;19;20329;-87
2023/01/19 04:55:00;;;;;;;11.63;7.93;;;-3.30;99.90;;;;;;7410145;19;20336;-89
2023/01/19 04:57:25;;;;;;;11.38;6.22;;;-3.30;99.90;;;;;;7384728;19;20317;-87
2023/01/19 04:59:51;;;;;;;8.55;6.43;;;-3.40;99.90;;;;;;7410144;19;20340;-90
2023/01/19 05:02:17;;;;;;;11.15;7.22;;;-3.30;99.90;;;;;;7408482;19;20305;-88
2023/01/19 05:04:42;;;;;;;9.73;6.00;;;-3.30;99.90;;;;;;7410621;19;20341;-90
2023/01/19 05:07:09;;;;;;;10.17;6.73;;;-3.30;99.90;;;;;;7410268;19;20325;-91
2023/01/19 05:09:34;;;;;;;10.27;6.88;;;-3.30;99.90;;;;;;7408799;19;20942;-87
2023/01/19 05:12:00;;;;;;;9.30;7.03;;;-3.50;99.90;;;;;;7407229;19;20336;-90
2023/01/19 05:14:25;;;;;;;7.00;5.50;;;-3.60;99.90;;;;;;7410492;19;20341;-91
2023/01/19 05:16:51;;;;;;;9.93;6.80;;;-3.60;99.90;;;;;;7408471;19;20625;-87
2023/01/19 05:19:17;;;;;;;9.77;5.97;;;-3.70;99.90;;;;;;7410023;19;20324;-86
2023/01/19 05:21:43;;;;;;;10.40;6.80;;;-3.70;99.90;;;;;;7407753;19;20337;-94
2023/01/19 05:24:08;;;;;;;9.87;6.30;;;-3.60;99.90;;;;;;7408501;19;20313;-93
2023/01/19 05:26:34;;;;;;;9.10;6.82;;;-3.60;99.90;;;;;;7409869;19;20336;-90
2023/01/19 05:29:00;;;;;;;10.37;6.80;;;-3.60;99.90;;;;;;7409927;19;20320;-87
2023/01/19 05:31:25;;;;;;;13.27;7.65;;;-3.70;99.90;;;;;;7406491;19;20391;-88
2023/01/19 05:33:51;;;;;;;8.48;6.20;;;-3.80;99.90;;;;;;7405965;19;20308;-94
2023/01/19 05:36:17;;;;;;;10.07;6.97;;;-3.80;99.90;;;;;;7410374;19;20324;-85
2023/01/19 05:38:42;;;;;;;11.05;7.18;;;-3.80;99.90;;;;;;7408734;19;20361;-91
2023/01/19 05:41:08;;;;;;;11.13;6.88;;;-3.80;99.90;;;;;;7406933;19;20320;-89
2023/01/19 05:43:34;;;;;;;13.57;7.67;;;-3.80;99.90;;;;;;7407529;19;20976;-87
2023/01/19 05:46:00;;;;;;;10.87;6.20;;;-3.80;99.90;;;;;;7408626;19;20336;-86
2023/01/19 05:48:25;;;;;;;10.63;7.05;;;-3.80;99.90;;;;;;7413079;19;20329;-85
2023/01/19 05:50:55;;;;;;;13.17;7.83;;;-3.70;99.90;;;;;;7408978;19;20360;-87
2023/01/19 05:53:21;;;;;;;12.57;7.53;;;-3.80;99.90;;;;;;7407503;19;20322;-84
2023/01/19 05:55:46;;;;;;;12.05;6.95;;;-3.80;99.90;;;;;;7406990;19;20329;-87
2023/01/19 05:58:12;;;;;;;9.33;6.77;;;-3.90;99.90;;;;;;7411068;19;20320;-90
2023/01/19 06:00:37;;;;;;;9.75;6.63;;;-3.90;99.90;;;;;;7403502;19;20878;-91
2023/01/19 06:03:05;;;;;;;11.27;6.43;;;-4.00;99.90;;;;;;7396474;19;20324;-87
2023/01/19 06:05:31;;;;;;;13.77;7.60;;;-4.00;99.90;;;;;;7394503;19;20968;-91
2023/01/19 06:10:24;;;;;;;10.98;6.75;;;-3.90;99.90;;;;;;7384747;19;20337;-81
2023/01/19 06:12:51;;;;;;;10.25;6.63;;;-4.00;99.90;;;;;;7385486;19;20325;-82
2023/01/19 06:15:17;;;;;;;9.68;6.43;;;-4.10;99.90;;;;;;7386202;19;20309;-88
2023/01/19 06:17:42;;;;;;;8.88;6.28;;;-4.10;99.90;;;;;;7388647;19;20357;-84
2023/01/19 06:20:08;;;;;;;11.17;7.30;;;-4.10;99.90;;;;;;7385617;19;20342;-78
2023/01/19 06:22:34;;;;;;;10.13;6.63;;;-4.10;99.90;;;;;;7386376;19;20361;-87
2023/01/19 06:25:00;;;;;;;11.05;6.28;;;-4.20;99.90;;;;;;7387761;19;20321;-79
2023/01/19 06:27:25;;;;;;;7.80;5.97;;;-4.20;99.90;;;;;;7389054;19;20348;-90
2023/01/19 06:29:51;;;;;;;8.10;6.13;;;-4.20;99.90;;;;;;7388069;19;20317;-85
2023/01/19 06:32:17;;;;;;;8.55;6.10;;;-4.20;99.90;;;;;;7387622;19;20320;-85
2023/01/19 06:34:42;;;;;;;6.27;5.43;;;-4.20;99.90;;;;;;7389626;19;20337;-81
2023/01/19 06:37:11;;;;;;;8.40;6.03;;;-4.30;99.90;;;;;;7390292;19;20317;-86
2023/01/19 06:39:39;;;;;;;6.35;5.05;;;-4.20;99.90;;;;;;7391202;19;20353;-82
2023/01/19 06:42:06;;;;;;;7.85;5.47;;;-4.20;99.90;;;;;;7392350;19;20342;-85
2023/01/19 06:44:32;;;;;;;7.55;5.47;;;-4.30;99.90;;;;;;7388606;19;20915;-81
2023/01/19 06:46:58;;;;;;;10.23;6.45;;;-4.30;99.90;;;;;;7390894;19;20316;-82
2023/01/19 06:49:23;;;;;;;9.10;5.83;;;-4.40;99.90;;;;;;7387997;19;20356;-86
2023/01/19 06:51:49;;;;;;;7.35;5.40;;;-4.50;99.90;;;;;;7385962;19;21240;-82
2023/01/19 06:54:15;;;;;;;7.47;5.10;;;-4.40;99.90;;;;;;7388989;19;20313;-87
2023/01/19 06:56:40;;;;;;;6.17;4.83;;;-4.40;99.90;;;;;;7390926;19;20404;-82
2023/01/19 06:59:07;;;;;;;6.72;4.53;;;-4.50;99.90;;;;;;7389432;19;21169;-79
2023/01/19 07:01:32;;;;;;;5.80;3.30;;;-4.50;99.90;;;;;;7386592;19;20362;-88
2023/01/19 07:03:58;;;;;;;4.05;3.42;;;-4.60;99.90;;;;;;7390117;19;20329;-84
2023/01/19 07:06:24;;;;;;;5.70;4.17;;;-4.60;99.90;;;;;;7387876;19;20360;-80
2023/01/19 07:08:49;;;;;;;4.65;3.45;;;-4.70;99.90;;;;;;7385505;19;20388;-81
2023/01/19 07:11:15;;;;;;;3.60;3.17;;;-4.80;99.90;;;;;;7384342;19;20337;-86
2023/01/19 07:13:41;;;;;;;3.67;2.95;;;-4.90;99.90;;;;;;7385844;19;20719;-79
2023/01/19 07:16:08;;;;;;;3.77;2.87;;;-5.00;99.90;;;;;;7386565;19;20346;-80
2023/01/19 07:18:35;;;;;;;6.30;2.97;;;-5.00;99.90;;;;;;7384280;19;20349;-84
2023/01/19 07:21:01;;;;;;;3.30;3.00;;;-5.10;99.90;;;;;;7382738;19;20316;-79
2023/01/19 07:23:29;;;;;;;3.13;2.83;;;-5.10;99.90;;;;;;7385985;19;20329;-82
2023/01/19 07:25:59;;;;;;;3.80;3.10;;;-5.20;99.90;;;;;;7381887;19;20313;-80
2023/01/19 07:28:25;;;;;;;3.30;2.90;;;-5.30;99.90;;;;;;7383311;19;20381;-81
2023/01/19 07:30:52;;;;;;;3.70;3.40;;;-5.30;99.90;;;;;;7381368;19;20826;-83
2023/01/19 07:33:17;;;;;;;3.72;3.22;;;-5.30;99.90;;;;;;7384196;19;20333;-80
2023/01/19 07:35:47;;;;;;;4.97;3.33;;;-5.20;99.90;;;;;;7383155;19;20371;-84
2023/01/19 07:38:12;;;;;;;4.35;3.20;;;-5.30;99.90;;;;;;7382381;19;20327;-85
2023/01/19 07:40:38;;;;;;;4.00;3.60;;;-5.30;99.90;;;;;;7382535;19;20349;-84
2023/01/19 07:43:03;;;;;;;3.83;3.28;;;-5.40;99.90;;;;;;7383164;19;20417;-86
2023/01/19 07:45:29;;;;;;;4.40;3.20;;;-5.40;99.90;;;;;;7382232;19;20340;-85
2023/01/19 07:47:55;;;;;;;4.78;3.60;;;-5.40;99.90;;;;;;7382150;19;20301;-85
2023/01/19 07:50:23;;;;;;;4.97;4.38;;;-5.40;99.90;;;;;;7381991;19;20301;-84
2023/01/19 07:52:52;;;;;;;7.70;5.50;;;-5.30;99.90;;;;;;7381930;19;20357;-84
2023/01/19 07:55:18;;;;;;;8.13;6.13;;;-5.40;99.90;;;;;;7382858;19;20313;-88
2023/01/19 07:57:44;;;;;;;6.90;5.65;;;-5.40;99.90;;;;;;7379694;19;20376;-80
2023/01/19 08:00:10;;;;;;;11.63;7.17;;;-5.40;99.90;;;;;;7381677;19;20400;-83
2023/01/19 08:02:39;;;;;;;11.05;6.72;;;-5.30;99.90;;;;;;7384031;19;20329;-85
2023/01/19 08:05:05;;;;;;;9.35;6.07;;;-5.10;99.90;;;;;;7388704;19;20315;-88
2023/01/19 08:07:33;;;;;;;10.55;6.60;;;-5.10;99.90;;;;;;7389498;19;20416;-78
2023/01/19 08:09:58;;;;;;;14.68;9.15;;;-4.90;99.90;;;;;;7390425;19;20301;-79
2023/01/19 08:12:24;;;;;;;13.15;7.28;;;-4.90;99.90;;;;;;7388677;19;21199;-79
2023/01/19 08:14:49;;;;;;;9.67;7.10;;;-4.80;99.90;;;;;;7388860;19;20353;-84
2023/01/19 08:17:15;;;;;;;9.97;6.23;;;-4.70;99.90;;;;;;7390795;19;20366;-81
2023/01/19 08:19:42;;;;;;;9.15;6.03;;;-4.60;99.90;;;;;;7389693;19;20337;-89
2023/01/19 08:22:07;;;;;;;9.60;6.32;;;-4.60;99.90;;;;;;7390890;19;20341;-87
2023/01/19 08:24:33;;;;;;;9.32;6.45;;;-4.50;99.90;;;;;;7387581;19;20365;-82
2023/01/19 08:26:59;;;;;;;8.57;5.80;;;-4.40;99.90;;;;;;7390936;19;20312;-80
2023/01/19 08:29:25;;;;;;;11.93;8.43;;;-4.30;99.90;;;;;;7390029;19;20348;-81
2023/01/19 08:31:51;;;;;;;11.25;7.55;;;-4.30;99.90;;;;;;7384287;19;20308;-81
2023/01/19 08:34:17;;;;;;;10.65;6.97;;;-4.30;99.90;;;;;;7386197;19;20331;-81
2023/01/19 08:36:43;;;;;;;11.40;6.27;;;-4.20;99.90;;;;;;7385564;19;20345;-81
2023/01/19 08:39:11;;;;;;;8.07;5.35;;;-4.20;99.90;;;;;;7385955;19;20312;-79
2023/01/19 08:41:36;;;;;;;7.50;5.30;;;-4.20;99.90;;;;;;7384906;19;20395;-89
2023/01/19 08:44:02;;;;;;;7.60;5.68;;;-4.10;99.90;;;;;;7389589;19;20341;-81
2023/01/19 08:46:28;;;;;;;8.13;5.77;;;-4.00;99.90;;;;;;7389778;19;20333;-80
2023/01/19 08:48:53;;;;;;;7.45;5.13;;;-3.90;99.90;;;;;;7387788;19;20316;-79
2023/01/19 08:51:21;;;;;;;9.87;5.53;;;-3.80;99.90;;;;;;7392355;19;20329;-86
2023/01/19 08:53:47;;;;;;;7.07;4.68;;;-3.90;99.90;;;;;;7389925;19;20317;-84
2023/01/19 08:56:13;;;;;;;8.57;5.75;;;-3.90;99.90;;;;;;7386909;19;20351;-80
2023/01/19 08:58:39;;;;;;;11.75;7.47;;;-3.80;99.90;;;;;;7386907;19;20345;-78
2023/01/19 09:01:06;;;;;;;9.57;6.00;;;-3.80;99.90;;;;;;7384283;19;20369;-81
2023/01/19 09:03:32;;;;;;;7.82;5.38;;;-3.70;99.90;;;;;;7385602;19;20359;-83
2023/01/19 09:05:58;;;;;;;13.25;8.35;;;-3.60;99.90;;;;;;7389476;19;20313;-82
2023/01/19 09:08:23;;;;;;;8.80;6.00;;;-3.60;99.90;;;;;;7389723;19;20339;-82
2023/01/19 09:10:49;;;;;;;9.13;6.35;;;-3.60;99.90;;;;;;7388615;19;20856;-85
2023/01/19 09:13:15;;;;;;;6.13;5.22;;;-3.50;99.90;;;;;;7388261;19;21649;-82
2023/01/19 09:15:41;;;;;;;9.57;6.18;;;-3.50;99.90;;;;;;7385440;19;20340;-81
2023/01/19 09:18:12;;;;;;;10.40;7.45;;;-3.40;99.90;;;;;;7389682;19;20358;-85
2023/01/19 09:20:41;;;;;;;10.37;5.87;;;-3.30;99.90;;;;;;7388139;19;20336;-87
2023/01/19 09:23:09;;;;;;;9.88;5.85;;;-3.20;99.90;;;;;;7388438;19;20329;-82
2023/01/19 09:25:36;;;;;;;6.55;5.00;;;-3.10;99.90;;;;;;7386883;19;20350;-80
2023/01/19 09:28:04;;;;;;;7.57;5.28;;;-3.00;99.90;;;;;;7388682;19;20306;-84
2023/01/19 09:30:31;;;;;;;6.80;5.10;;;-3.00;99.90;;;;;;7389214;19;20309;-85
2023/01/19 09:33:01;;;;;;;11.35;5.80;;;-2.90;99.90;;;;;;7387411;19;20333;-86
2023/01/19 09:35:27;;;;;;;6.15;4.78;;;-2.90;99.90;;;;;;7387180;19;20336;-88
2023/01/19 09:37:52;;;;;;;6.23;5.13;;;-2.80;99.90;;;;;;7390218;19;20305;-83
2023/01/19 09:40:18;;;;;;;5.35;4.82;;;-2.80;99.90;;;;;;7390661;19;20365;-89
2023/01/19 09:42:47;;;;;;;7.20;5.43;;;-2.70;99.90;;;;;;7388581;19;20353;-93
2023/01/19 09:45:35;;;;;;;11.90;7.90;;;-2.70;99.90;;;;;;7388634;19;20312;-89
2023/01/19 09:48:03;;;;;;;10.13;5.63;;;-2.70;99.90;;;;;;7288652;19;2004527;-82
2023/01/19 09:50:37;;;;;;;7.20;4.82;;;-2.60;99.90;;;;;;7391164;19;20337;-86
2023/01/19 09:53:12;;;;;;;7.50;5.25;;;-2.50;99.90;;;;;;7289297;19;2004816;-86
2023/01/19 09:55:40;;;;;;;5.43;4.57;;;-2.50;99.90;;;;;;7387159;19;20352;-84
2023/01/19 09:58:17;;;;;;;6.63;4.63;;;-2.40;99.90;;;;;;7387467;19;20316;-88
2023/01/19 10:00:48;;;;;;;6.63;4.63;;;-2.30;99.90;;;;;;7389639;19;20328;-82
2023/01/19 10:03:15;;;;;;;6.70;4.65;;;-2.30;99.90;;;;;;7390215;19;20339;-81
2023/01/19 10:05:50;;;;;;;6.00;5.07;;;-2.20;99.90;;;;;;7382507;19;20365;-83
2023/01/19 10:08:29;;;;;;;7.40;5.17;;;-2.10;99.90;;;;;;7385549;19;20330;-81
2023/01/19 10:10:56;;;;;;;6.40;5.13;;;-2.00;99.90;;;;;;7385443;19;20331;-81
2023/01/19 10:13:27;;;;;;;9.07;5.70;;;-2.00;99.90;;;;;;7382796;19;20502;-80
2023/01/19 10:16:24;;;;;;;7.38;5.25;;;-1.90;99.90;;;;;;7385045;19;20309;-80
2023/01/19 10:18:51;;;;;;;9.65;5.90;;;-1.80;99.90;;;;;;7283338;19;2004420;-81
2023/01/19 10:21:18;;;;;;;7.97;5.07;;;-1.70;99.90;;;;;;7385882;19;20389;-84
2023/01/19 10:23:48;;;;;;;7.85;5.88;;;-1.60;99.90;;;;;;7386541;19;20360;-83
2023/01/19 10:26:28;;;;;;;11.20;6.32;;;-1.60;99.90;;;;;;7387355;19;20372;-81
2023/01/19 10:29:00;;;;;;;10.25;8.02;;;-1.50;99.90;;;;;;7386355;19;20315;-82
2023/01/19 10:31:26;;;;;;;8.63;6.65;;;-1.40;99.90;;;;;;7387215;19;20359;-83
2023/01/19 10:33:52;;;;;;;8.17;5.47;;;-1.40;99.90;;;;;;7386341;19;20311;-87
2023/01/19 10:36:28;;;;;;;6.57;5.43;;;-1.30;99.90;;;;;;7386590;19;20313;-85
2023/01/19 10:38:54;;;;;;;7.28;5.40;;;-1.20;99.90;;;;;;7388037;19;20348;-86
2023/01/19 10:41:39;;;;;;;7.00;5.20;;;-1.10;99.90;;;;;;7383647;19;21108;-88
2023/01/19 10:44:08;;;;;;;7.90;5.95;;;-1.10;99.90;;;;;;7286213;19;2004410;-82
2023/01/19 10:46:36;;;;;;;7.27;5.00;;;-1.00;99.90;;;;;;7384216;19;20352;-88
2023/01/19 10:49:02;;;;;;;7.43;5.32;;;-0.90;99.90;;;;;;7383557;19;20996;-85
2023/01/19 10:51:31;;;;;;;6.63;4.90;;;-0.90;99.90;;;;;;7386427;19;20320;-88
2023/01/19 10:53:58;;;;;;;8.50;5.30;;;-0.80;99.90;;;;;;7383862;19;20401;-83
2023/01/19 10:56:34;;;;;;;5.93;4.73;;;-0.80;99.90;;;;;;7384749;19;20325;-84
2023/01/19 10:59:02;;;;;;;5.47;4.50;;;-0.70;99.90;;;;;;7384991;19;20332;-84
2023/01/19 11:01:29;;;;;;;4.95;4.25;;;-0.60;99.90;;;;;;7384639;19;20333;-81
2023/01/19 11:04:04;;;;;;;6.95;6.00;;;-0.50;99.90;;;;;;7384296;19;20334;-81
2023/01/19 11:06:34;;;;;;;7.50;5.13;;;-0.40;99.90;;;;;;7278591;19;2027613;-84
2023/01/19 11:09:29;;;;;;;9.05;6.50;;;-0.20;99.90;;;;;;7385392;19;20316;-80
2023/01/19 11:11:55;;;;;;;11.10;7.05;;;-0.10;99.90;;;;;;7282615;19;2004918;-81
2023/01/19 11:14:22;;;;;;;9.77;6.40;;;0.00;99.90;;;;;;7384898;19;20325;-83
2023/01/19 11:16:50;;;;;;;6.47;4.67;;;0.10;99.90;;;;;;7387477;19;20316;-83
2023/01/19 11:19:34;;;;;;;5.50;5.00;;;0.10;99.90;;;;;;7386389;19;20307;-80
2023/01/19 11:22:20;;;;;;;7.20;5.57;;;0.30;99.90;;;;;;7385225;19;20308;-84
2023/01/19 11:24:45;;;;;;;8.18;5.75;;;0.60;99.90;;;;;;7285438;19;2004636;-83
2023/01/19 11:27:11;;;;;;;9.15;5.35;;;0.70;99.90;;;;;;7384551;19;20313;-81
2023/01/19 11:29:37;;;;;;;6.87;5.23;;;0.70;99.90;;;;;;7386041;19;20355;-81
2023/01/19 11:32:20;;;;;;;8.20;5.30;;;0.80;99.90;;;;;;7382686;19;20344;-83
2023/01/19 11:34:45;;;;;;;5.18;4.68;;;0.80;99.90;;;;;;7380083;19;20340;-85
2023/01/19 11:37:20;;;;;;;5.27;4.70;;;0.90;99.90;;;;;;7377881;19;20309;-80
2023/01/19 11:39:55;;;;;;;7.40;5.20;;;0.80;99.90;;;;;;7378816;19;20344;-82
2023/01/19 11:42:21;;;;;;;5.82;4.70;;;0.70;99.90;;;;;;7378416;19;20298;-81
2023/01/19 11:45:06;;;;;;;5.88;4.90;;;0.90;99.90;;;;;;7377331;19;20340;-80
2023/01/19 11:47:48;;;;;;;6.17;4.90;;;0.90;99.90;;;;;;7277130;19;2004278;-79
2023/01/19 11:50:32;;;;;;;6.50;5.20;;;0.80;99.90;;;;;;7380275;19;20396;-79
2023/01/19 11:53:11;;;;;;;5.47;4.45;;;0.90;99.90;;;;;;7380508;19;20372;-83
2023/01/19 11:55:58;;;;;;;6.45;4.72;;;1.20;99.90;;;;;;7276400;19;2004357;-81
2023/01/19 11:58:24;;;;;;;6.90;5.05;;;1.50;99.90;;;;;;7378053;19;20329;-78
2023/01/19 12:00:54;;;;;;;5.90;4.75;;;2.00;99.90;;;;;;7379293;19;20317;-80
2023/01/19 12:03:33;;;;;;;7.68;5.32;;;2.20;99.90;;;;;;7380827;19;20320;-81
2023/01/19 12:06:08;;;;;;;7.50;5.32;;;2.60;99.90;;;;;;7379653;19;20307;-80
2023/01/19 12:08:44;;;;;;;6.28;5.13;;;2.30;99.90;;;;;;7278223;19;2004227;-80
2023/01/19 12:11:12;;;;;;;7.27;5.10;;;2.20;99.90;;;;;;7378401;19;20388;-80
2023/01/19 12:13:37;;;;;;;6.45;4.90;;;2.30;99.90;;;;;;7379974;19;20367;-79
2023/01/19 12:16:05;;;;;;;7.30;5.40;;;2.50;99.90;;;;;;7379858;19;20321;-79
2023/01/19 12:18:37;;;;;;;7.38;4.63;;;2.50;99.90;;;;;;7375644;19;20344;-81
2023/01/19 12:21:03;;;;;;;6.10;4.50;;;2.60;99.90;;;;;;7274715;19;2004535;-84
2023/01/19 12:23:48;;;;;;;6.10;4.88;;;2.60;99.90;;;;;;7378081;19;20424;-78
2023/01/19 12:26:43;;;;;;;8.57;4.75;;;2.60;99.90;;;;;;7274277;19;2004241;-81
2023/01/19 12:29:12;;;;;;;6.87;4.63;;;2.70;99.90;;;;;;7274770;19;2005278;-78
2023/01/19 12:31:39;;;;;;;6.10;4.90;;;2.80;99.90;;;;;;7376576;19;20373;-80
2023/01/19 12:34:34;;;;;;;6.50;4.82;;;3.00;99.90;;;;;;7377420;19;20371;-79
2023/01/19 12:37:03;;;;;;;4.95;4.45;;;3.20;99.90;;;;;;7375045;19;20305;-81
2023/01/19 12:39:29;;;;;;;6.22;4.43;;;3.10;99.90;;;;;;7378428;19;20347;-78
2023/01/19 12:42:14;;;;;;;5.67;4.20;;;2.90;99.90;;;;;;7377280;19;20851;-79
2023/01/19 12:44:40;;;;;;;4.57;4.07;;;2.50;99.90;;;;;;7276383;19;2004272;-79
2023/01/19 12:47:14;;;;;;;5.13;4.43;;;2.30;99.90;;;;;;7378067;19;21250;-77
2023/01/19 12:49:41;;;;;;;5.63;4.40;;;2.10;99.90;;;;;;7380806;19;20340;-83
2023/01/19 12:52:32;;;;;;;6.05;4.78;;;1.90;99.90;;;;;;7384990;19;20689;-83
2023/01/19 12:55:13;;;;;;;5.55;4.38;;;1.70;99.90;;;;;;7385312;19;20304;-84
2023/01/19 12:58:16;;;;;;;6.30;4.55;;;1.60;99.90;;;;;;7282170;19;2004360;-82
2023/01/19 13:00:42;;;;;;;5.93;4.40;;;1.50;99.90;;;;;;7283117;19;2004421;-77
2023/01/19 13:03:17;;;;;;;7.47;4.65;;;1.50;99.90;;;;;;7386637;19;20312;-82
2023/01/19 13:05:42;;;;;;;6.20;5.20;;;1.40;99.90;;;;;;7384939;19;20862;-83